sensor_id;sensor_type;location;lat;lon;timestamp;P1;durP1;ratioP1;P2;durP2;ratioP2
11984;SDS011;6052;53.246;10.368;2023-07-20T00:01:28;6.85;;;1.35;;
11984;SDS011;6052;53.246;10.368;2023-07-20T00:03:58;3.83;;;1.10;;
11984;SDS011;6052;53.246;10.368;2023-07-20T00:06:27;1.25;;;1.00;;
11984;SDS011;6052;53.246;10.368;2023-07-20T00:08:57;0.90;;;0.90;;
11984;SDS011;6052;53.246;10.368;2023-07-20T00:11:31;0.90;;;0.90;;
11984;SDS011;6052;53.246;10.368;2023-07-20T00:14:00;1.92;;;1.25;;
11984;SDS011;6052;53.246;10.368;2023-07-20T00:16:29;0.80;;;0.80;;
11984;SDS011;6052;53.246;10.368;2023-07-20T00:18:59;0.95;;;0.82;;
11984;SDS011;6052;53.246;10.368;2023-07-20T00:21:28;1.23;;;1.00;;
11984;SDS011;6052;53.246;10.368;2023-07-20T00:23:58;2.75;;;0.98;;
11984;SDS011;6052;53.246;10.368;2023-07-20T00:26:27;0.80;;;0.80;;
11984;SDS011;6052;53.246;10.368;2023-07-20T00:28:59;0.70;;;0.70;;
11984;SDS011;6052;53.246;10.368;2023-07-20T00:31:29;1.00;;;1.00;;
11984;SDS011;6052;53.246;10.368;2023-07-20T00:33:58;1.13;;;1.00;;
11984;SDS011;6052;53.246;10.368;2023-07-20T00:36:28;1.38;;;1.10;;
11984;SDS011;6052;53.246;10.368;2023-07-20T00:38:57;1.15;;;0.95;;
11984;SDS011;6052;53.246;10.368;2023-07-20T00:41:27;0.57;;;0.57;;
11984;SDS011;6052;53.246;10.368;2023-07-20T00:44:00;1.00;;;0.90;;
11984;SDS011;6052;53.246;10.368;2023-07-20T00:46:30;1.10;;;1.00;;
11984;SDS011;6052;53.246;10.368;2023-07-20T00:49:00;0.93;;;0.88;;
11984;SDS011;6052;53.246;10.368;2023-07-20T00:51:30;3.00;;;1.05;;
11984;SDS011;6052;53.246;10.368;2023-07-20T00:54:00;1.15;;;1.00;;
11984;SDS011;6052;53.246;10.368;2023-07-20T00:56:29;1.02;;;0.95;;
11984;SDS011;6052;53.246;10.368;2023-07-20T00:59:01;0.95;;;0.90;;
11984;SDS011;6052;53.246;10.368;2023-07-20T01:01:31;1.85;;;0.60;;
11984;SDS011;6052;53.246;10.368;2023-07-20T01:03:58;1.00;;;0.90;;
11984;SDS011;6052;53.246;10.368;2023-07-20T01:06:29;1.30;;;1.00;;
11984;SDS011;6052;53.246;10.368;2023-07-20T01:09:11;0.95;;;0.90;;
11984;SDS011;6052;53.246;10.368;2023-07-20T01:11:43;0.80;;;0.80;;
11984;SDS011;6052;53.246;10.368;2023-07-20T01:14:24;0.80;;;0.80;;
11984;SDS011;6052;53.246;10.368;2023-07-20T01:16:54;1.20;;;1.10;;
11984;SDS011;6052;53.246;10.368;2023-07-20T01:19:23;1.17;;;1.08;;
11984;SDS011;6052;53.246;10.368;2023-07-20T01:21:53;1.90;;;0.80;;
11984;SDS011;6052;53.246;10.368;2023-07-20T01:24:39;1.13;;;0.88;;
11984;SDS011;6052;53.246;10.368;2023-07-20T01:30:45;1.08;;;0.90;;
11984;SDS011;6052;53.246;10.368;2023-07-20T01:33:23;3.35;;;0.88;;
11984;SDS011;6052;53.246;10.368;2023-07-20T01:35:56;1.00;;;0.90;;
11984;SDS011;6052;53.246;10.368;2023-07-20T01:38:27;1.23;;;0.90;;
11984;SDS011;6052;53.246;10.368;2023-07-20T01:40:57;1.42;;;1.00;;
11984;SDS011;6052;53.246;10.368;2023-07-20T01:43:27;1.50;;;1.00;;
11984;SDS011;6052;53.246;10.368;2023-07-20T01:45:57;0.80;;;0.80;;
11984;SDS011;6052;53.246;10.368;2023-07-20T01:48:29;2.05;;;0.90;;
11984;SDS011;6052;53.246;10.368;2023-07-20T01:50:58;1.25;;;1.00;;
11984;SDS011;6052;53.246;10.368;2023-07-20T01:53:28;2.00;;;1.20;;
11984;SDS011;6052;53.246;10.368;2023-07-20T01:55:58;2.10;;;1.13;;
11984;SDS011;6052;53.246;10.368;2023-07-20T01:58:27;2.85;;;1.10;;
11984;SDS011;6052;53.246;10.368;2023-07-20T02:00:56;4.10;;;1.40;;
11984;SDS011;6052;53.246;10.368;2023-07-20T02:03:28;1.00;;;0.90;;
11984;SDS011;6052;53.246;10.368;2023-07-20T02:05:58;1.02;;;0.95;;
11984;SDS011;6052;53.246;10.368;2023-07-20T02:08:27;1.80;;;0.95;;
11984;SDS011;6052;53.246;10.368;2023-07-20T02:10:57;3.25;;;1.20;;
11984;SDS011;6052;53.246;10.368;2023-07-20T02:13:29;2.65;;;1.20;;
11984;SDS011;6052;53.246;10.368;2023-07-20T02:15:58;2.25;;;1.30;;
11984;SDS011;6052;53.246;10.368;2023-07-20T02:18:30;0.80;;;0.80;;
11984;SDS011;6052;53.246;10.368;2023-07-20T02:21:00;1.67;;;1.15;;
11984;SDS011;6052;53.246;10.368;2023-07-20T02:23:29;4.13;;;0.90;;
11984;SDS011;6052;53.246;10.368;2023-07-20T02:26:00;2.20;;;1.20;;
11984;SDS011;6052;53.246;10.368;2023-07-20T02:28:29;2.38;;;1.50;;
11984;SDS011;6052;53.246;10.368;2023-07-20T02:30:59;1.20;;;1.10;;
11984;SDS011;6052;53.246;10.368;2023-07-20T02:33:32;1.80;;;1.23;;
11984;SDS011;6052;53.246;10.368;2023-07-20T02:36:02;1.50;;;1.20;;
11984;SDS011;6052;53.246;10.368;2023-07-20T02:38:31;1.50;;;1.40;;
11984;SDS011;6052;53.246;10.368;2023-07-20T02:41:00;1.23;;;1.13;;
11984;SDS011;6052;53.246;10.368;2023-07-20T02:43:30;3.53;;;1.38;;
11984;SDS011;6052;53.246;10.368;2023-07-20T02:45:59;2.10;;;1.50;;
11984;SDS011;6052;53.246;10.368;2023-07-20T02:48:29;1.35;;;1.10;;
11984;SDS011;6052;53.246;10.368;2023-07-20T02:51:01;1.50;;;1.30;;
11984;SDS011;6052;53.246;10.368;2023-07-20T02:53:30;2.47;;;1.33;;
11984;SDS011;6052;53.246;10.368;2023-07-20T02:56:00;2.58;;;1.40;;
11984;SDS011;6052;53.246;10.368;2023-07-20T02:58:29;2.30;;;1.70;;
11984;SDS011;6052;53.246;10.368;2023-07-20T03:00:59;1.95;;;1.38;;
11984;SDS011;6052;53.246;10.368;2023-07-20T03:03:28;1.95;;;1.58;;
11984;SDS011;6052;53.246;10.368;2023-07-20T03:06:00;1.77;;;1.60;;
11984;SDS011;6052;53.246;10.368;2023-07-20T03:08:30;1.60;;;1.50;;
11984;SDS011;6052;53.246;10.368;2023-07-20T03:10:59;1.60;;;1.50;;
11984;SDS011;6052;53.246;10.368;2023-07-20T03:13:29;2.03;;;1.38;;
11984;SDS011;6052;53.246;10.368;2023-07-20T03:15:58;1.95;;;1.58;;
11984;SDS011;6052;53.246;10.368;2023-07-20T03:18:28;1.85;;;1.25;;
11984;SDS011;6052;53.246;10.368;2023-07-20T03:20:57;2.20;;;1.40;;
11984;SDS011;6052;53.246;10.368;2023-07-20T03:23:29;1.33;;;1.23;;
11984;SDS011;6052;53.246;10.368;2023-07-20T03:25:59;2.83;;;1.70;;
11984;SDS011;6052;53.246;10.368;2023-07-20T03:28:29;1.42;;;1.13;;
11984;SDS011;6052;53.246;10.368;2023-07-20T03:30:59;1.05;;;0.95;;
11984;SDS011;6052;53.246;10.368;2023-07-20T03:33:29;0.95;;;0.85;;
11984;SDS011;6052;53.246;10.368;2023-07-20T03:36:03;1.05;;;0.95;;
11984;SDS011;6052;53.246;10.368;2023-07-20T03:38:33;1.10;;;0.98;;
11984;SDS011;6052;53.246;10.368;2023-07-20T03:41:02;2.45;;;0.95;;
11984;SDS011;6052;53.246;10.368;2023-07-20T03:43:31;1.92;;;1.10;;
11984;SDS011;6052;53.246;10.368;2023-07-20T03:46:01;1.20;;;1.10;;
11984;SDS011;6052;53.246;10.368;2023-07-20T03:48:33;0.80;;;0.80;;
11984;SDS011;6052;53.246;10.368;2023-07-20T03:51:05;1.25;;;1.15;;
11984;SDS011;6052;53.246;10.368;2023-07-20T03:53:34;0.95;;;0.90;;
11984;SDS011;6052;53.246;10.368;2023-07-20T03:56:05;0.90;;;0.88;;
11984;SDS011;6052;53.246;10.368;2023-07-20T03:58:34;0.93;;;0.77;;
11984;SDS011;6052;53.246;10.368;2023-07-20T04:01:04;0.65;;;0.65;;
11984;SDS011;6052;53.246;10.368;2023-07-20T04:03:33;0.70;;;0.70;;
11984;SDS011;6052;53.246;10.368;2023-07-20T04:06:05;1.77;;;1.00;;
11984;SDS011;6052;53.246;10.368;2023-07-20T04:08:35;1.10;;;0.90;;
11984;SDS011;6052;53.246;10.368;2023-07-20T04:11:04;0.70;;;0.70;;
11984;SDS011;6052;53.246;10.368;2023-07-20T04:13:35;0.70;;;0.63;;
11984;SDS011;6052;53.246;10.368;2023-07-20T04:16:04;0.82;;;0.70;;
11984;SDS011;6052;53.246;10.368;2023-07-20T04:18:34;0.70;;;0.70;;
11984;SDS011;6052;53.246;10.368;2023-07-20T04:21:07;0.80;;;0.70;;
11984;SDS011;6052;53.246;10.368;2023-07-20T04:23:37;0.55;;;0.52;;
11984;SDS011;6052;53.246;10.368;2023-07-20T04:26:06;0.60;;;0.60;;
11984;SDS011;6052;53.246;10.368;2023-07-20T04:28:39;1.38;;;0.70;;
11984;SDS011;6052;53.246;10.368;2023-07-20T04:31:09;0.82;;;0.80;;
11984;SDS011;6052;53.246;10.368;2023-07-20T04:33:40;1.75;;;0.70;;
11984;SDS011;6052;53.246;10.368;2023-07-20T04:36:12;0.73;;;0.73;;
11984;SDS011;6052;53.246;10.368;2023-07-20T04:38:46;0.40;;;0.40;;
11984;SDS011;6052;53.246;10.368;2023-07-20T04:41:15;0.60;;;0.60;;
11984;SDS011;6052;53.246;10.368;2023-07-20T04:43:44;2.25;;;0.68;;
11984;SDS011;6052;53.246;10.368;2023-07-20T04:46:14;0.77;;;0.60;;
11984;SDS011;6052;53.246;10.368;2023-07-20T04:48:44;1.17;;;0.90;;
11984;SDS011;6052;53.246;10.368;2023-07-20T04:51:17;1.05;;;0.75;;
11984;SDS011;6052;53.246;10.368;2023-07-20T04:53:47;0.80;;;0.80;;
11984;SDS011;6052;53.246;10.368;2023-07-20T04:56:16;1.98;;;0.60;;
11984;SDS011;6052;53.246;10.368;2023-07-20T04:58:46;0.70;;;0.70;;
11984;SDS011;6052;53.246;10.368;2023-07-20T05:01:16;1.88;;;0.77;;
11984;SDS011;6052;53.246;10.368;2023-07-20T05:03:45;2.33;;;0.80;;
11984;SDS011;6052;53.246;10.368;2023-07-20T05:06:19;1.35;;;0.88;;
11984;SDS011;6052;53.246;10.368;2023-07-20T05:08:49;0.98;;;0.90;;
11984;SDS011;6052;53.246;10.368;2023-07-20T05:11:18;1.42;;;1.00;;
11984;SDS011;6052;53.246;10.368;2023-07-20T05:13:48;1.30;;;1.20;;
11984;SDS011;6052;53.246;10.368;2023-07-20T05:16:17;0.82;;;0.80;;
11984;SDS011;6052;53.246;10.368;2023-07-20T05:18:47;1.75;;;1.02;;
11984;SDS011;6052;53.246;10.368;2023-07-20T05:21:20;1.00;;;1.00;;
11984;SDS011;6052;53.246;10.368;2023-07-20T05:23:49;1.10;;;1.00;;
11984;SDS011;6052;53.246;10.368;2023-07-20T05:26:18;1.60;;;1.08;;
11984;SDS011;6052;53.246;10.368;2023-07-20T05:28:48;0.95;;;0.93;;
11984;SDS011;6052;53.246;10.368;2023-07-20T05:31:18;1.65;;;0.90;;
11984;SDS011;6052;53.246;10.368;2023-07-20T05:33:47;1.15;;;1.05;;
11984;SDS011;6052;53.246;10.368;2023-07-20T05:36:19;1.00;;;0.90;;
11984;SDS011;6052;53.246;10.368;2023-07-20T05:38:49;1.48;;;0.90;;
11984;SDS011;6052;53.246;10.368;2023-07-20T05:41:19;1.20;;;1.10;;
11984;SDS011;6052;53.246;10.368;2023-07-20T05:43:49;1.00;;;0.80;;
11984;SDS011;6052;53.246;10.368;2023-07-20T05:46:18;1.00;;;0.90;;
11984;SDS011;6052;53.246;10.368;2023-07-20T05:48:48;0.70;;;0.70;;
11984;SDS011;6052;53.246;10.368;2023-07-20T05:51:20;0.77;;;0.70;;
11984;SDS011;6052;53.246;10.368;2023-07-20T05:53:50;0.65;;;0.65;;
11984;SDS011;6052;53.246;10.368;2023-07-20T05:56:19;1.67;;;0.80;;
11984;SDS011;6052;53.246;10.368;2023-07-20T05:58:49;0.60;;;0.60;;
11984;SDS011;6052;53.246;10.368;2023-07-20T06:01:18;0.68;;;0.60;;
11984;SDS011;6052;53.246;10.368;2023-07-20T06:03:48;0.90;;;0.90;;
11984;SDS011;6052;53.246;10.368;2023-07-20T06:06:17;2.17;;;0.70;;
11984;SDS011;6052;53.246;10.368;2023-07-20T06:08:50;0.70;;;0.70;;
11984;SDS011;6052;53.246;10.368;2023-07-20T06:11:20;2.38;;;0.57;;
11984;SDS011;6052;53.246;10.368;2023-07-20T06:13:50;0.82;;;0.70;;
11984;SDS011;6052;53.246;10.368;2023-07-20T06:16:19;1.98;;;1.30;;
11984;SDS011;6052;53.246;10.368;2023-07-20T06:18:49;0.70;;;0.65;;
11984;SDS011;6052;53.246;10.368;2023-07-20T06:21:18;1.05;;;0.50;;
11984;SDS011;6052;53.246;10.368;2023-07-20T06:23:50;0.90;;;0.60;;
11984;SDS011;6052;53.246;10.368;2023-07-20T06:26:20;1.67;;;0.90;;
11984;SDS011;6052;53.246;10.368;2023-07-20T06:28:50;1.25;;;1.00;;
11984;SDS011;6052;53.246;10.368;2023-07-20T06:31:20;0.73;;;0.73;;
11984;SDS011;6052;53.246;10.368;2023-07-20T06:33:49;1.02;;;0.90;;
11984;SDS011;6052;53.246;10.368;2023-07-20T06:36:18;1.48;;;1.20;;
11984;SDS011;6052;53.246;10.368;2023-07-20T06:38:51;1.17;;;1.08;;
11984;SDS011;6052;53.246;10.368;2023-07-20T06:41:23;1.77;;;1.20;;
11984;SDS011;6052;53.246;10.368;2023-07-20T06:43:55;1.95;;;1.30;;
11984;SDS011;6052;53.246;10.368;2023-07-20T06:46:25;2.35;;;1.10;;
11984;SDS011;6052;53.246;10.368;2023-07-20T06:48:54;1.20;;;1.10;;
11984;SDS011;6052;53.246;10.368;2023-07-20T06:51:27;2.70;;;1.40;;
11984;SDS011;6052;53.246;10.368;2023-07-20T06:53:59;1.75;;;1.25;;
11984;SDS011;6052;53.246;10.368;2023-07-20T06:56:31;3.05;;;1.20;;
11984;SDS011;6052;53.246;10.368;2023-07-20T06:59:01;1.60;;;1.10;;
11984;SDS011;6052;53.246;10.368;2023-07-20T07:01:30;1.02;;;0.93;;
11984;SDS011;6052;53.246;10.368;2023-07-20T07:04:00;1.27;;;1.15;;
11984;SDS011;6052;53.246;10.368;2023-07-20T07:06:30;1.73;;;1.20;;
11984;SDS011;6052;53.246;10.368;2023-07-20T07:09:02;1.30;;;0.82;;
11984;SDS011;6052;53.246;10.368;2023-07-20T07:11:34;2.88;;;1.10;;
11984;SDS011;6052;53.246;10.368;2023-07-20T07:14:04;6.13;;;1.10;;
11984;SDS011;6052;53.246;10.368;2023-07-20T07:16:34;0.98;;;0.98;;
11984;SDS011;6052;53.246;10.368;2023-07-20T07:19:04;0.80;;;0.80;;
11984;SDS011;6052;53.246;10.368;2023-07-20T07:21:34;1.20;;;1.10;;
11984;SDS011;6052;53.246;10.368;2023-07-20T07:24:07;2.33;;;0.98;;
11984;SDS011;6052;53.246;10.368;2023-07-20T07:26:36;0.80;;;0.80;;
11984;SDS011;6052;53.246;10.368;2023-07-20T07:29:06;2.25;;;0.82;;
11984;SDS011;6052;53.246;10.368;2023-07-20T07:31:35;1.27;;;0.90;;
11984;SDS011;6052;53.246;10.368;2023-07-20T07:34:05;1.05;;;0.93;;
11984;SDS011;6052;53.246;10.368;2023-07-20T07:36:34;0.70;;;0.70;;
11984;SDS011;6052;53.246;10.368;2023-07-20T07:39:06;1.25;;;0.90;;
11984;SDS011;6052;53.246;10.368;2023-07-20T07:41:39;0.80;;;0.80;;
11984;SDS011;6052;53.246;10.368;2023-07-20T07:44:09;0.70;;;0.70;;
11984;SDS011;6052;53.246;10.368;2023-07-20T07:46:38;1.30;;;0.75;;
11984;SDS011;6052;53.246;10.368;2023-07-20T07:49:08;2.20;;;0.90;;
11984;SDS011;6052;53.246;10.368;2023-07-20T07:51:37;0.70;;;0.70;;
11984;SDS011;6052;53.246;10.368;2023-07-20T07:54:09;1.10;;;1.00;;
11984;SDS011;6052;53.246;10.368;2023-07-20T07:56:39;0.88;;;0.60;;
11984;SDS011;6052;53.246;10.368;2023-07-20T07:59:09;0.63;;;0.63;;
11984;SDS011;6052;53.246;10.368;2023-07-20T08:01:38;2.33;;;0.90;;
11984;SDS011;6052;53.246;10.368;2023-07-20T08:04:08;2.35;;;0.88;;
11984;SDS011;6052;53.246;10.368;2023-07-20T08:06:37;0.90;;;0.90;;
11984;SDS011;6052;53.246;10.368;2023-07-20T08:09:09;2.17;;;0.90;;
11984;SDS011;6052;53.246;10.368;2023-07-20T08:11:39;3.60;;;0.80;;
11984;SDS011;6052;53.246;10.368;2023-07-20T08:14:08;2.40;;;0.75;;
11984;SDS011;6052;53.246;10.368;2023-07-20T08:16:38;1.63;;;0.65;;
11984;SDS011;6052;53.246;10.368;2023-07-20T08:19:08;0.75;;;0.65;;
11984;SDS011;6052;53.246;10.368;2023-07-20T08:21:37;2.15;;;0.70;;
11984;SDS011;6052;53.246;10.368;2023-07-20T08:24:07;2.45;;;0.75;;
11984;SDS011;6052;53.246;10.368;2023-07-20T08:26:39;2.85;;;0.80;;
11984;SDS011;6052;53.246;10.368;2023-07-20T08:29:08;1.10;;;0.80;;
11984;SDS011;6052;53.246;10.368;2023-07-20T08:31:38;2.92;;;0.90;;
11984;SDS011;6052;53.246;10.368;2023-07-20T08:34:07;1.25;;;0.93;;
11984;SDS011;6052;53.246;10.368;2023-07-20T08:36:55;0.85;;;0.77;;
11984;SDS011;6052;53.246;10.368;2023-07-20T08:39:27;0.50;;;0.50;;
11984;SDS011;6052;53.246;10.368;2023-07-20T08:41:57;2.78;;;0.85;;
11984;SDS011;6052;53.246;10.368;2023-07-20T08:44:32;1.48;;;0.80;;
11984;SDS011;6052;53.246;10.368;2023-07-20T08:47:02;1.80;;;0.52;;
11984;SDS011;6052;53.246;10.368;2023-07-20T08:49:35;1.10;;;0.68;;
11984;SDS011;6052;53.246;10.368;2023-07-20T08:52:05;0.95;;;0.70;;
11984;SDS011;6052;53.246;10.368;2023-07-20T08:54:38;1.10;;;0.65;;
11984;SDS011;6052;53.246;10.368;2023-07-20T08:57:08;2.72;;;0.90;;
11984;SDS011;6052;53.246;10.368;2023-07-20T08:59:42;2.85;;;0.75;;
11984;SDS011;6052;53.246;10.368;2023-07-20T09:02:15;1.13;;;0.80;;
11984;SDS011;6052;53.246;10.368;2023-07-20T09:04:47;2.97;;;0.85;;
11984;SDS011;6052;53.246;10.368;2023-07-20T09:07:17;1.00;;;0.80;;
11984;SDS011;6052;53.246;10.368;2023-07-20T09:09:52;1.63;;;0.90;;
11984;SDS011;6052;53.246;10.368;2023-07-20T09:12:21;1.38;;;0.60;;
11984;SDS011;6052;53.246;10.368;2023-07-20T09:14:51;3.35;;;0.50;;
11984;SDS011;6052;53.246;10.368;2023-07-20T09:17:20;0.63;;;0.63;;
11984;SDS011;6052;53.246;10.368;2023-07-20T09:19:55;2.03;;;0.60;;
11984;SDS011;6052;53.246;10.368;2023-07-20T09:22:29;1.30;;;0.50;;
11984;SDS011;6052;53.246;10.368;2023-07-20T09:25:01;0.88;;;0.73;;
11984;SDS011;6052;53.246;10.368;2023-07-20T09:27:34;1.00;;;0.63;;
11984;SDS011;6052;53.246;10.368;2023-07-20T09:30:05;0.90;;;0.55;;
11984;SDS011;6052;53.246;10.368;2023-07-20T09:32:44;0.60;;;0.60;;
11984;SDS011;6052;53.246;10.368;2023-07-20T09:35:18;1.60;;;0.60;;
11984;SDS011;6052;53.246;10.368;2023-07-20T09:37:53;1.23;;;0.60;;
11984;SDS011;6052;53.246;10.368;2023-07-20T09:40:29;0.70;;;0.70;;
11984;SDS011;6052;53.246;10.368;2023-07-20T09:43:02;1.60;;;0.98;;
11984;SDS011;6052;53.246;10.368;2023-07-20T09:45:34;1.17;;;0.90;;
11984;SDS011;6052;53.246;10.368;2023-07-20T09:48:24;1.70;;;0.82;;
11984;SDS011;6052;53.246;10.368;2023-07-20T09:50:57;0.73;;;0.70;;
11984;SDS011;6052;53.246;10.368;2023-07-20T09:53:26;2.78;;;1.08;;
11984;SDS011;6052;53.246;10.368;2023-07-20T09:56:00;1.60;;;0.82;;
11984;SDS011;6052;53.246;10.368;2023-07-20T09:58:30;1.08;;;0.90;;
11984;SDS011;6052;53.246;10.368;2023-07-20T10:01:01;2.92;;;1.05;;
11984;SDS011;6052;53.246;10.368;2023-07-20T10:03:34;3.75;;;1.20;;
11984;SDS011;6052;53.246;10.368;2023-07-20T10:06:06;1.00;;;0.90;;
11984;SDS011;6052;53.246;10.368;2023-07-20T10:08:39;3.42;;;1.00;;
11984;SDS011;6052;53.246;10.368;2023-07-20T10:11:16;2.70;;;1.10;;
11984;SDS011;6052;53.246;10.368;2023-07-20T10:13:46;2.67;;;1.10;;
11984;SDS011;6052;53.246;10.368;2023-07-20T10:16:22;2.17;;;1.10;;
11984;SDS011;6052;53.246;10.368;2023-07-20T10:18:59;1.30;;;1.00;;
11984;SDS011;6052;53.246;10.368;2023-07-20T10:21:45;2.00;;;1.02;;
11984;SDS011;6052;53.246;10.368;2023-07-20T10:24:24;1.30;;;1.00;;
11984;SDS011;6052;53.246;10.368;2023-07-20T10:26:57;1.17;;;1.00;;
11984;SDS011;6052;53.246;10.368;2023-07-20T10:29:27;1.00;;;0.93;;
11984;SDS011;6052;53.246;10.368;2023-07-20T10:31:58;1.35;;;1.00;;
11984;SDS011;6052;53.246;10.368;2023-07-20T10:34:29;2.60;;;0.98;;
11984;SDS011;6052;53.246;10.368;2023-07-20T10:36:58;0.70;;;0.70;;
11984;SDS011;6052;53.246;10.368;2023-07-20T10:39:30;1.55;;;0.93;;
11984;SDS011;6052;53.246;10.368;2023-07-20T10:42:05;0.68;;;0.65;;
11984;SDS011;6052;53.246;10.368;2023-07-20T10:44:36;1.80;;;1.00;;
11984;SDS011;6052;53.246;10.368;2023-07-20T10:47:08;1.73;;;0.90;;
11984;SDS011;6052;53.246;10.368;2023-07-20T10:52:35;1.60;;;1.13;;
11984;SDS011;6052;53.246;10.368;2023-07-20T10:55:13;1.00;;;0.90;;
11984;SDS011;6052;53.246;10.368;2023-07-20T10:57:46;1.00;;;0.80;;
11984;SDS011;6052;53.246;10.368;2023-07-20T11:00:36;5.95;;;0.90;;
11984;SDS011;6052;53.246;10.368;2023-07-20T11:03:05;2.95;;;0.88;;
11984;SDS011;6052;53.246;10.368;2023-07-20T11:05:35;2.03;;;0.90;;
11984;SDS011;6052;53.246;10.368;2023-07-20T11:08:09;0.85;;;0.60;;
11984;SDS011;6052;53.246;10.368;2023-07-20T11:10:40;0.88;;;0.70;;
11984;SDS011;6052;53.246;10.368;2023-07-20T11:13:21;0.80;;;0.70;;
11984;SDS011;6052;53.246;10.368;2023-07-20T11:18:40;1.85;;;0.70;;
11984;SDS011;6052;53.246;10.368;2023-07-20T11:21:10;1.48;;;0.80;;
11984;SDS011;6052;53.246;10.368;2023-07-20T11:23:40;1.00;;;0.90;;
11984;SDS011;6052;53.246;10.368;2023-07-20T11:26:09;1.33;;;0.82;;
11984;SDS011;6052;53.246;10.368;2023-07-20T11:28:41;1.80;;;0.82;;
11984;SDS011;6052;53.246;10.368;2023-07-20T11:31:13;1.15;;;0.70;;
11984;SDS011;6052;53.246;10.368;2023-07-20T11:33:43;0.70;;;0.65;;
11984;SDS011;6052;53.246;10.368;2023-07-20T11:36:12;0.43;;;0.43;;
11984;SDS011;6052;53.246;10.368;2023-07-20T11:38:45;0.63;;;0.57;;
11984;SDS011;6052;53.246;10.368;2023-07-20T11:41:15;0.70;;;0.50;;
11984;SDS011;6052;53.246;10.368;2023-07-20T11:43:47;0.75;;;0.50;;
11984;SDS011;6052;53.246;10.368;2023-07-20T11:46:17;0.35;;;0.35;;
11984;SDS011;6052;53.246;10.368;2023-07-20T11:48:47;1.58;;;0.57;;
11984;SDS011;6052;53.246;10.368;2023-07-20T11:51:16;1.15;;;0.40;;
11984;SDS011;6052;53.246;10.368;2023-07-20T11:53:47;0.70;;;0.52;;
11984;SDS011;6052;53.246;10.368;2023-07-20T11:56:16;1.60;;;0.70;;
11984;SDS011;6052;53.246;10.368;2023-07-20T11:58:49;0.32;;;0.32;;
11984;SDS011;6052;53.246;10.368;2023-07-20T12:01:18;0.63;;;0.57;;
11984;SDS011;6052;53.246;10.368;2023-07-20T12:03:48;1.10;;;0.75;;
11984;SDS011;6052;53.246;10.368;2023-07-20T12:06:18;2.72;;;0.63;;
11984;SDS011;6052;53.246;10.368;2023-07-20T12:08:47;0.80;;;0.80;;
11984;SDS011;6052;53.246;10.368;2023-07-20T12:11:30;2.03;;;0.80;;
11984;SDS011;6052;53.246;10.368;2023-07-20T12:14:02;1.85;;;0.50;;
11984;SDS011;6052;53.246;10.368;2023-07-20T12:16:43;2.47;;;0.70;;
11984;SDS011;6052;53.246;10.368;2023-07-20T12:19:12;0.70;;;0.50;;
11984;SDS011;6052;53.246;10.368;2023-07-20T12:21:42;0.60;;;0.57;;
11984;SDS011;6052;53.246;10.368;2023-07-20T12:24:12;0.75;;;0.43;;
11984;SDS011;6052;53.246;10.368;2023-07-20T12:26:41;0.93;;;0.50;;
11984;SDS011;6052;53.246;10.368;2023-07-20T12:29:14;0.43;;;0.35;;
11984;SDS011;6052;53.246;10.368;2023-07-20T12:31:43;0.80;;;0.50;;
11984;SDS011;6052;53.246;10.368;2023-07-20T12:34:13;1.23;;;0.40;;
11984;SDS011;6052;53.246;10.368;2023-07-20T12:36:42;0.60;;;0.60;;
11984;SDS011;6052;53.246;10.368;2023-07-20T12:39:12;0.75;;;0.55;;
11984;SDS011;6052;53.246;10.368;2023-07-20T12:41:41;0.60;;;0.60;;
11984;SDS011;6052;53.246;10.368;2023-07-20T12:44:13;0.80;;;0.57;;
11984;SDS011;6052;53.246;10.368;2023-07-20T12:46:43;3.45;;;0.55;;
11984;SDS011;6052;53.246;10.368;2023-07-20T12:49:12;2.53;;;0.60;;
11984;SDS011;6052;53.246;10.368;2023-07-20T12:51:41;0.95;;;0.70;;
11984;SDS011;6052;53.246;10.368;2023-07-20T12:54:11;2.05;;;0.63;;
11984;SDS011;6052;53.246;10.368;2023-07-20T12:56:40;1.08;;;0.60;;
11984;SDS011;6052;53.246;10.368;2023-07-20T12:59:15;1.30;;;0.70;;
11984;SDS011;6052;53.246;10.368;2023-07-20T13:01:45;0.47;;;0.45;;
11984;SDS011;6052;53.246;10.368;2023-07-20T13:04:14;1.80;;;0.52;;
11984;SDS011;6052;53.246;10.368;2023-07-20T13:06:43;1.55;;;0.73;;
11984;SDS011;6052;53.246;10.368;2023-07-20T13:09:13;0.80;;;0.50;;
11984;SDS011;6052;53.246;10.368;2023-07-20T13:11:42;0.90;;;0.68;;
11984;SDS011;6052;53.246;10.368;2023-07-20T13:14:15;0.47;;;0.47;;
11984;SDS011;6052;53.246;10.368;2023-07-20T13:16:44;1.15;;;0.63;;
11984;SDS011;6052;53.246;10.368;2023-07-20T13:19:13;1.15;;;0.65;;
11984;SDS011;6052;53.246;10.368;2023-07-20T13:21:43;0.40;;;0.40;;
11984;SDS011;6052;53.246;10.368;2023-07-20T13:24:12;1.77;;;0.90;;
11984;SDS011;6052;53.246;10.368;2023-07-20T13:26:42;0.63;;;0.63;;
11984;SDS011;6052;53.246;10.368;2023-07-20T13:29:14;3.83;;;0.60;;
11984;SDS011;6052;53.246;10.368;2023-07-20T13:31:44;0.85;;;0.63;;
11984;SDS011;6052;53.246;10.368;2023-07-20T13:34:14;0.65;;;0.50;;
11984;SDS011;6052;53.246;10.368;2023-07-20T13:36:45;2.17;;;0.80;;
11984;SDS011;6052;53.246;10.368;2023-07-20T13:39:15;3.30;;;1.23;;
11984;SDS011;6052;53.246;10.368;2023-07-20T13:41:44;2.25;;;0.60;;
11984;SDS011;6052;53.246;10.368;2023-07-20T13:44:16;2.30;;;0.65;;
11984;SDS011;6052;53.246;10.368;2023-07-20T13:46:48;0.50;;;0.43;;
11984;SDS011;6052;53.246;10.368;2023-07-20T13:49:20;0.65;;;0.55;;
11984;SDS011;6052;53.246;10.368;2023-07-20T13:51:50;1.20;;;0.50;;
11984;SDS011;6052;53.246;10.368;2023-07-20T13:54:22;1.80;;;0.50;;
11984;SDS011;6052;53.246;10.368;2023-07-20T13:56:53;0.50;;;0.50;;
11984;SDS011;6052;53.246;10.368;2023-07-20T13:59:25;0.70;;;0.45;;
11984;SDS011;6052;53.246;10.368;2023-07-20T14:01:54;0.93;;;0.50;;
11984;SDS011;6052;53.246;10.368;2023-07-20T14:04:27;0.30;;;0.30;;
11984;SDS011;6052;53.246;10.368;2023-07-20T14:06:56;4.32;;;0.60;;
11984;SDS011;6052;53.246;10.368;2023-07-20T14:09:26;0.70;;;0.40;;
11984;SDS011;6052;53.246;10.368;2023-07-20T14:11:55;0.88;;;0.32;;
11984;SDS011;6052;53.246;10.368;2023-07-20T14:14:30;3.75;;;0.80;;
11984;SDS011;6052;53.246;10.368;2023-07-20T14:16:59;1.23;;;0.63;;
11984;SDS011;6052;53.246;10.368;2023-07-20T14:19:29;1.38;;;0.60;;
11984;SDS011;6052;53.246;10.368;2023-07-20T14:21:58;0.30;;;0.30;;
11984;SDS011;6052;53.246;10.368;2023-07-20T14:24:27;1.23;;;0.60;;
11984;SDS011;6052;53.246;10.368;2023-07-20T14:26:57;1.40;;;0.50;;
11984;SDS011;6052;53.246;10.368;2023-07-20T14:29:29;0.47;;;0.47;;
11984;SDS011;6052;53.246;10.368;2023-07-20T14:32:06;1.00;;;0.30;;
11984;SDS011;6052;53.246;10.368;2023-07-20T14:34:35;1.52;;;0.80;;
11984;SDS011;6052;53.246;10.368;2023-07-20T14:37:06;5.63;;;0.57;;
11984;SDS011;6052;53.246;10.368;2023-07-20T14:39:37;0.55;;;0.50;;
11984;SDS011;6052;53.246;10.368;2023-07-20T14:42:06;0.88;;;0.60;;
11984;SDS011;6052;53.246;10.368;2023-07-20T14:44:39;1.98;;;0.60;;
11984;SDS011;6052;53.246;10.368;2023-07-20T14:47:08;1.02;;;0.52;;
11984;SDS011;6052;53.246;10.368;2023-07-20T14:49:40;3.00;;;1.00;;
11984;SDS011;6052;53.246;10.368;2023-07-20T14:52:10;1.35;;;1.00;;
11984;SDS011;6052;53.246;10.368;2023-07-20T14:54:42;1.58;;;0.80;;
11984;SDS011;6052;53.246;10.368;2023-07-20T14:57:11;1.13;;;0.77;;
11984;SDS011;6052;53.246;10.368;2023-07-20T14:59:45;1.20;;;0.70;;
11984;SDS011;6052;53.246;10.368;2023-07-20T15:02:15;3.30;;;0.90;;
11984;SDS011;6052;53.246;10.368;2023-07-20T15:04:48;1.30;;;0.73;;
11984;SDS011;6052;53.246;10.368;2023-07-20T15:07:20;1.73;;;0.70;;
11984;SDS011;6052;53.246;10.368;2023-07-20T15:09:50;1.40;;;0.93;;
11984;SDS011;6052;53.246;10.368;2023-07-20T15:12:20;2.35;;;1.20;;
11984;SDS011;6052;53.246;10.368;2023-07-20T15:15:02;2.35;;;0.88;;
11984;SDS011;6052;53.246;10.368;2023-07-20T15:17:33;0.80;;;0.80;;
11984;SDS011;6052;53.246;10.368;2023-07-20T15:20:04;1.70;;;0.80;;